Carnival Spirit — 9HA3097 — position and weather

sailwx.info

Track history (hours):
 
Tides and Currents Weather Stations Pressure Air Temp Water Temp Dewpoint Dewpoint Depression Visibility Wind Speed Wind Dir Waves Ship Positions

Carnival Spirit

Last reported at 2018-Oct-18 15:34 UTC. Time now 2018-Oct-20 01:49 UTC.
Position S 32°41' E 152°57'.

Length 293 m; draft 8.2 m.

Type: Ship. MMSI: 229136000.

Date/timePositionNaut miles runAvg speedWind from/ knotsBaromVisibWave heightAir tempDewpointWater temp
2018-Oct-18 15:34S 32°41' E 152°57'317.7
2018-Oct-18 15:26S 32°43' E 152°55'817.2
2018-Oct-18 14:59S 32°48' E 152°48'1516.6
2018-Oct-18 14:03S 32°58' E 152°34'916.0
2018-Oct-18 13:30S 33°04' E 152°26'716.1
2018-Oct-18 13:03S 33°09' E 152°20'116.0
2018-Oct-18 13:00S 33°09' E 152°19'816.5
2018-Oct-18 12:30S 33°15' E 152°12'716.5
2018-Oct-18 12:03S 33°20' E 152°05'116.6
2018-Oct-18 12:00S 33°20' E 152°04'2116.7
2018-Oct-18 10:43S 33°34' E 151°45'517.7
2018-Oct-18 10:26S 33°38' E 151°40'717.6
2018-Oct-18 10:03S 33°42' E 151°34'114.5
2018-Oct-18 10:00S 33°42' E 151°34'714.1
2018-Oct-18 09:30S 33°47' E 151°27'512.0
2018-Oct-18 09:03S 33°51' E 151°22'0 8.5
2018-Oct-18 09:00S 33°51' E 151°22'5 9.2
2018-Oct-18 08:30S 33°50' E 151°16'4 6.1
2018-Oct-18 07:55S 33°52' E 151°13'0 0.0
2018-Oct-18 07:21S 33°52' E 151°13'0 0.0
2018-Oct-18 04:44S 33°52' E 151°13'0 0.0
2018-Oct-17 21:08S 33°52' E 151°13'0 0.0
2018-Oct-17 20:50S 33°52' E 151°13'0 0.0
2018-Oct-17 20:29S 33°52' E 151°13'0 0.0
2018-Oct-17 19:35S 33°52' E 151°13'0 0.0
2018-Oct-17 19:29S 33°52' E 151°13'0 0.3
2018-Oct-17 19:03S 33°51' E 151°13'0 1.2
2018-Oct-17 19:00S 33°51' E 151°13'3 7.1
2018-Oct-17 18:30S 33°50' E 151°16'511.6
2018-Oct-17 18:04S 33°50' E 151°23'0 8.7
2018-Oct-17 18:00S 33°50' E 151°23'612.3
2018-Oct-17 17:30S 33°45' E 151°28'714.7
2018-Oct-17 17:03S 33°40' E 151°33'115.2
2018-Oct-17 17:00S 33°40' E 151°34'714.7
2018-Oct-17 16:30S 33°34' E 151°39'714.7
2018-Oct-17 16:02S 33°30' E 151°45'413.6
2018-Oct-17 15:46S 33°27' E 151°49'1013.7
2018-Oct-17 15:02S 33°20' E 151°57'213.0
2018-Oct-17 14:53S 33°18' E 151°59'613.2
2018-Oct-17 14:26S 33°14' E 152°04'1213.2
2018-Oct-17 13:30S 33°05' E 152°14'613.8
2018-Oct-17 13:03S 33°01' E 152°19'114.5
2018-Oct-17 13:00S 33°00' E 152°20'715.0
2018-Oct-17 12:30S 32°55' E 152°26'714.7
2018-Oct-17 12:03S 32°50' E 152°31'114.4
2018-Oct-17 12:00S 32°50' E 152°32'714.7
2018-Oct-17 11:30S 32°45' E 152°38'715.3
2018-Oct-17 11:03S 32°40' E 152°44'115.3
2018-Oct-17 11:00S 32°39' E 152°44'915.9
2018-Oct-17 10:27S 32°31' E 152°49'26917.3
2018-Oct-16 18:53S 28°08' E 153°53'717.2
2018-Oct-16 18:27S 28°00' E 153°53'717.1
2018-Oct-16 18:02S 27°53' E 153°52'117.2
2018-Oct-16 18:00S 27°53' E 153°52'917.5
2018-Oct-16 17:30S 27°44' E 153°51'817.6
2018-Oct-16 17:03S 27°36' E 153°51'117.2
2018-Oct-16 17:00S 27°35' E 153°51'917.7
2018-Oct-16 16:30S 27°26' E 153°50'917.4
2018-Oct-16 15:58S 27°17' E 153°49'1217.0
2018-Oct-16 15:16S 27°05' E 153°48'416.8
2018-Oct-16 15:02S 27°01' E 153°47'117.0
2018-Oct-16 15:00S 27°01' E 153°47'2314.2
2018-Oct-16 13:23S 26°44' E 153°29'515.0
2018-Oct-16 13:03S 26°43' E 153°24'215.5
2018-Oct-16 12:55S 26°43' E 153°22'615.2
2018-Oct-16 12:30S 26°42' E 153°15'7 9.5
2018-Oct-16 11:47S 26°48' E 153°11'312.5
2018-Oct-16 11:30S 26°51' E 153°09'715.6
2018-Oct-16 11:03S 26°57' E 153°13'115.9
2018-Oct-16 11:00S 26°57' E 153°13'714.8
2018-Oct-16 10:30S 27°03' E 153°18'714.8
2018-Oct-16 10:03S 27°10' E 153°21'0 7.8
2018-Oct-16 10:00S 27°10' E 153°21'0 0.9
2018-Oct-16 09:28S 27°10' E 153°20'0 0.1
2018-Oct-16 09:01S 27°10' E 153°20'0 0.1
2018-Oct-16 08:58S 27°10' E 153°20'0 0.1
2018-Oct-16 08:28S 27°10' E 153°20'0 0.1
2018-Oct-16 08:01S 27°10' E 153°20'0 0.5
2018-Oct-16 07:55S 27°10' E 153°20'0 0.1
2018-Oct-16 07:28S 27°10' E 153°20'0 0.0
2018-Oct-16 07:01S 27°10' E 153°20'0 0.0
2018-Oct-16 06:58S 27°10' E 153°20'0 0.1
2018-Oct-16 06:28S 27°10' E 153°20'0 0.0
2018-Oct-16 06:01S 27°10' E 153°20'0 0.1
2018-Oct-16 05:58S 27°10' E 153°20'0 0.0
2018-Oct-16 05:28S 27°10' E 153°20'0 0.0
2018-Oct-16 05:01S 27°10' E 153°20'0 0.1
2018-Oct-16 04:58S 27°10' E 153°20'0 0.0
2018-Oct-16 04:28S 27°10' E 153°20'0 0.0
2018-Oct-16 04:01S 27°10' E 153°20'0 0.0
2018-Oct-16 03:58S 27°10' E 153°20'0 0.0
2018-Oct-16 03:28S 27°10' E 153°20'0 0.0
2018-Oct-16 03:01S 27°10' E 153°20'0 0.0
2018-Oct-16 02:55S 27°10' E 153°20'0 0.0
2018-Oct-16 02:30S 27°10' E 153°20'0 0.0
2018-Oct-16 02:03S 27°10' E 153°20'0 0.1
2018-Oct-16 02:00S 27°10' E 153°20'0 0.0
2018-Oct-16 01:30S 27°10' E 153°20'0 0.0
2018-Oct-16 01:03S 27°10' E 153°20'0 0.0
2018-Oct-16 01:00S 27°10' E 153°20'0 0.0
2018-Oct-16 00:30S 27°10' E 153°20'0 0.0
2018-Oct-16 00:03S 27°10' E 153°20'0 1.2
2018-Oct-16 00:00S 27°10' E 153°20'2 3.0
2018-Oct-15 23:30S 27°09' E 153°21'714.7
2018-Oct-15 23:03S 27°03' E 153°17'115.7
2018-Oct-15 23:00S 27°03' E 153°17'714.8
2018-Oct-15 22:30S 26°56' E 153°13'614.3
2018-Oct-15 22:03S 26°51' E 153°09'112.6
2018-Oct-15 22:00S 26°50' E 153°09'1011.5
2018-Oct-15 21:10S 26°41' E 153°13'1 6.1
2018-Oct-15 21:00S 26°41' E 153°14'18 9.7
2018-Oct-15 19:10S 26°42' E 153°34'17 8.6
2018-Oct-15 17:14S 26°53' E 153°48'312.5
2018-Oct-15 16:57S 26°57' E 153°49'512.2
2018-Oct-15 16:30S 27°02' E 153°49'1312.5
2018-Oct-15 15:30S 27°15' E 153°51'612.4
2018-Oct-15 15:00S 27°21' E 153°51'812.7
2018-Oct-15 14:21S 27°29' E 153°51'412.8
2018-Oct-15 14:00S 27°33' E 153°51'612.5
2018-Oct-15 13:30S 27°40' E 153°51'612.8
2018-Oct-15 13:03S 27°45' E 153°51'113.4
2018-Oct-15 13:00S 27°46' E 153°51'713.1
2018-Oct-15 12:30S 27°53' E 153°51'612.9
2018-Oct-15 12:02S 27°59' E 153°51'013.5
2018-Oct-15 12:00S 27°59' E 153°51'713.0
2018-Oct-15 11:28S 28°06' E 153°51'26913.2
2018-Oct-14 15:02S 32°30' E 152°50'014.1
2018-Oct-14 15:00S 32°30' E 152°50'713.7
2018-Oct-14 14:31S 32°36' E 152°47'612.8
2018-Oct-14 14:01S 32°41' E 152°42'612.5
2018-Oct-14 13:31S 32°46' E 152°37'612.5
2018-Oct-14 13:04S 32°50' E 152°33'112.8
2018-Oct-14 13:01S 32°51' E 152°32'612.5
2018-Oct-14 12:31S 32°56' E 152°28'612.5
2018-Oct-14 12:04S 33°00' E 152°24'112.8
2018-Oct-14 12:01S 33°01' E 152°24'613.0
2018-Oct-14 11:31S 33°06' E 152°19'613.0
2018-Oct-14 11:03S 33°10' E 152°14'113.9
2018-Oct-14 11:00S 33°11' E 152°13'713.6
2018-Oct-14 10:30S 33°14' E 152°06'813.7
2018-Oct-14 09:56S 33°18' E 151°58'1914.2
2018-Oct-14 08:34S 33°33' E 151°43'113.8
2018-Oct-14 08:29S 33°33' E 151°42'613.9
2018-Oct-14 08:03S 33°38' E 151°37'114.4
2018-Oct-14 08:01S 33°38' E 151°36'714.4
2018-Oct-14 07:31S 33°44' E 151°31'613.3
2018-Oct-14 07:03S 33°48' E 151°26'113.8
2018-Oct-14 07:00S 33°49' E 151°26'611.9
2018-Oct-14 06:30S 33°52' E 151°20'4 8.0
2018-Oct-14 06:04S 33°50' E 151°17'111.1
2018-Oct-14 06:00S 33°50' E 151°16'3 0.4
2018-Oct-13 22:15S 33°52' E 151°13'0 0.0
2018-Oct-13 21:39S 33°52' E 151°13'0 0.0
2018-Oct-13 20:39S 33°52' E 151°13'0 0.0
2018-Oct-13 20:15S 33°52' E 151°13'0 0.0
2018-Oct-13 19:21S 33°52' E 151°13'0 0.1
2018-Oct-13 19:04S 33°52' E 151°13'0 1.0
2018-Oct-13 19:01S 33°52' E 151°13'3 5.3
2018-Oct-13 18:30S 33°51' E 151°16'510.2
2018-Oct-13 18:03S 33°50' E 151°21'110.6
2018-Oct-13 18:00S 33°49' E 151°22'714.2
2018-Oct-13 17:30S 33°45' E 151°28'613.5
2018-Oct-13 17:03S 33°41' E 151°33'112.0
2018-Oct-13 17:00S 33°40' E 151°34'611.9
2018-Oct-13 16:30S 33°36' E 151°39'511.9
2018-Oct-13 16:03S 33°32' E 151°43'112.2
2018-Oct-13 15:59S 33°32' E 151°44'1412.3
2018-Oct-13 14:49S 33°21' E 151°56'512.3
2018-Oct-13 14:24S 33°18' E 152°01'512.5
2018-Oct-13 14:00S 33°14' E 152°05'612.8
2018-Oct-13 13:30S 33°09' E 152°08'512.3
2018-Oct-13 13:03S 33°04' E 152°12'113.8
2018-Oct-13 13:00S 33°04' E 152°13'713.0
2018-Oct-13 12:30S 33°00' E 152°20'613.2
2018-Oct-13 12:03S 32°56' E 152°25'113.4
2018-Oct-13 12:00S 32°56' E 152°25'713.4
2018-Oct-13 11:30S 32°51' E 152°31'613.3
2018-Oct-13 11:03S 32°46' E 152°35'113.3
2018-Oct-13 11:00S 32°46' E 152°36'713.3
2018-Oct-13 10:30S 32°41' E 152°41'613.2
2018-Oct-13 10:03S 32°37' E 152°46'112.6
2018-Oct-13 10:00S 32°36' E 152°47'93818.6
2018-Oct-11 07:40S 22°26' E 166°09'320.5
2018-Oct-11 07:30S 22°24' E 166°12'817.1
2018-Oct-11 07:03S 22°19' E 166°18'112.4
2018-Oct-11 07:00S 22°18' E 166°19'612.9
2018-Oct-11 06:30S 22°15' E 166°25'2 4.0
2018-Oct-11 06:03S 22°16' E 166°26'0 0.2
2018-Oct-11 05:59S 22°16' E 166°26'0 0.0
2018-Oct-11 05:26S 22°16' E 166°26'0 0.0
2018-Oct-11 05:02S 22°16' E 166°26'0 0.0
2018-Oct-11 04:59S 22°16' E 166°26'0 0.0
2018-Oct-11 04:29S 22°16' E 166°26'0 0.0
2018-Oct-11 04:02S 22°16' E 166°26'0 0.0
2018-Oct-11 03:59S 22°16' E 166°26'0 0.0
2018-Oct-11 03:26S 22°16' E 166°26'0 0.0
2018-Oct-11 03:02S 22°16' E 166°26'0 0.0
2018-Oct-11 02:59S 22°16' E 166°26'0 0.0
2018-Oct-11 02:29S 22°16' E 166°26'0 0.0
2018-Oct-11 02:02S 22°16' E 166°26'0 0.0
2018-Oct-11 01:59S 22°16' E 166°26'0 0.0
2018-Oct-11 01:29S 22°16' E 166°26'0 0.0
2018-Oct-11 01:02S 22°16' E 166°26'0 0.0
2018-Oct-11 00:59S 22°16' E 166°26'0 0.0
2018-Oct-11 00:29S 22°16' E 166°26'0 0.0
2018-Oct-11 00:02S 22°16' E 166°26'0 0.0
2018-Oct-10 23:59S 22°16' E 166°26'0 0.0
2018-Oct-10 23:29S 22°16' E 166°26'0 0.0
2018-Oct-10 23:02S 22°16' E 166°26'0 0.0
2018-Oct-10 22:59S 22°16' E 166°26'0 0.0
2018-Oct-10 22:29S 22°16' E 166°26'0 0.0
2018-Oct-10 22:02S 22°16' E 166°26'0 0.0
2018-Oct-10 21:59S 22°16' E 166°26'0 0.0
2018-Oct-10 21:29S 22°16' E 166°26'0 0.0
2018-Oct-10 21:02S 22°16' E 166°26'0 0.0
2018-Oct-10 20:59S 22°16' E 166°26'0 0.0
2018-Oct-10 20:26S 22°16' E 166°26'0 0.0
2018-Oct-10 20:03S 22°16' E 166°26'0 0.2
2018-Oct-10 20:00S 22°16' E 166°26'3 5.8
2018-Oct-10 19:31S 22°15' E 166°23'512.0
2018-Oct-10 19:03S 22°19' E 166°26'114.9
2018-Oct-10 19:00S 22°20' E 166°27'815.1
2018-Oct-10 18:30S 22°22' E 166°34'817.0
2018-Oct-10 18:03S 22°23' E 166°43'117.7
2018-Oct-10 18:00S 22°24' E 166°44'  
Track history (hours):
 
Tides and Currents Weather Stations Pressure Air Temp Water Temp Dewpoint Dewpoint Depression Visibility Wind Speed Wind Dir Waves Ship Positions

Carnival Spirit

Last reported at 2018-Oct-18 15:34 UTC. Time now 2018-Oct-20 01:49 UTC.
Position S 32°41' E 152°57'.

Length 293 m; draft 8.2 m.

Type: Ship. MMSI: 229136000.

Date/timePositionNaut miles runAvg speedWind from/ knotsBaromVisibWave heightAir tempDewpointWater temp
2018-Oct-18 15:34S 32°41' E 152°57'317.7
2018-Oct-18 15:26S 32°43' E 152°55'817.2
2018-Oct-18 14:59S 32°48' E 152°48'1516.6
2018-Oct-18 14:03S 32°58' E 152°34'916.0
2018-Oct-18 13:30S 33°04' E 152°26'716.1
2018-Oct-18 13:03S 33°09' E 152°20'116.0
2018-Oct-18 13:00S 33°09' E 152°19'816.5
2018-Oct-18 12:30S 33°15' E 152°12'716.5
2018-Oct-18 12:03S 33°20' E 152°05'116.6
2018-Oct-18 12:00S 33°20' E 152°04'2116.7
2018-Oct-18 10:43S 33°34' E 151°45'517.7
2018-Oct-18 10:26S 33°38' E 151°40'717.6
2018-Oct-18 10:03S 33°42' E 151°34'114.5
2018-Oct-18 10:00S 33°42' E 151°34'714.1
2018-Oct-18 09:30S 33°47' E 151°27'512.0
2018-Oct-18 09:03S 33°51' E 151°22'0 8.5
2018-Oct-18 09:00S 33°51' E 151°22'5 9.2
2018-Oct-18 08:30S 33°50' E 151°16'4 6.1
2018-Oct-18 07:55S 33°52' E 151°13'0 0.0
2018-Oct-18 07:21S 33°52' E 151°13'0 0.0
2018-Oct-18 04:44S 33°52' E 151°13'0 0.0
2018-Oct-17 21:08S 33°52' E 151°13'0 0.0
2018-Oct-17 20:50S 33°52' E 151°13'0 0.0
2018-Oct-17 20:29S 33°52' E 151°13'0 0.0
2018-Oct-17 19:35S 33°52' E 151°13'0 0.0
2018-Oct-17 19:29S 33°52' E 151°13'0 0.3
2018-Oct-17 19:03S 33°51' E 151°13'0 1.2
2018-Oct-17 19:00S 33°51' E 151°13'3 7.1
2018-Oct-17 18:30S 33°50' E 151°16'511.6
2018-Oct-17 18:04S 33°50' E 151°23'0 8.7
2018-Oct-17 18:00S 33°50' E 151°23'612.3
2018-Oct-17 17:30S 33°45' E 151°28'714.7
2018-Oct-17 17:03S 33°40' E 151°33'115.2
2018-Oct-17 17:00S 33°40' E 151°34'714.7
2018-Oct-17 16:30S 33°34' E 151°39'714.7
2018-Oct-17 16:02S 33°30' E 151°45'413.6
2018-Oct-17 15:46S 33°27' E 151°49'1013.7
2018-Oct-17 15:02S 33°20' E 151°57'213.0
2018-Oct-17 14:53S 33°18' E 151°59'613.2
2018-Oct-17 14:26S 33°14' E 152°04'1213.2
2018-Oct-17 13:30S 33°05' E 152°14'613.8
2018-Oct-17 13:03S 33°01' E 152°19'114.5
2018-Oct-17 13:00S 33°00' E 152°20'715.0
2018-Oct-17 12:30S 32°55' E 152°26'714.7
2018-Oct-17 12:03S 32°50' E 152°31'114.4
2018-Oct-17 12:00S 32°50' E 152°32'714.7
2018-Oct-17 11:30S 32°45' E 152°38'715.3
2018-Oct-17 11:03S 32°40' E 152°44'115.3
2018-Oct-17 11:00S 32°39' E 152°44'915.9
2018-Oct-17 10:27S 32°31' E 152°49'26917.3
2018-Oct-16 18:53S 28°08' E 153°53'717.2
2018-Oct-16 18:27S 28°00' E 153°53'717.1
2018-Oct-16 18:02S 27°53' E 153°52'117.2
2018-Oct-16 18:00S 27°53' E 153°52'917.5
2018-Oct-16 17:30S 27°44' E 153°51'817.6
2018-Oct-16 17:03S 27°36' E 153°51'117.2
2018-Oct-16 17:00S 27°35' E 153°51'917.7
2018-Oct-16 16:30S 27°26' E 153°50'917.4
2018-Oct-16 15:58S 27°17' E 153°49'1217.0
2018-Oct-16 15:16S 27°05' E 153°48'416.8
2018-Oct-16 15:02S 27°01' E 153°47'117.0
2018-Oct-16 15:00S 27°01' E 153°47'2314.2
2018-Oct-16 13:23S 26°44' E 153°29'515.0
2018-Oct-16 13:03S 26°43' E 153°24'215.5
2018-Oct-16 12:55S 26°43' E 153°22'615.2
2018-Oct-16 12:30S 26°42' E 153°15'7 9.5
2018-Oct-16 11:47S 26°48' E 153°11'312.5
2018-Oct-16 11:30S 26°51' E 153°09'715.6
2018-Oct-16 11:03S 26°57' E 153°13'115.9
2018-Oct-16 11:00S 26°57' E 153°13'714.8
2018-Oct-16 10:30S 27°03' E 153°18'714.8
2018-Oct-16 10:03S 27°10' E 153°21'0 7.8
2018-Oct-16 10:00S 27°10' E 153°21'0 0.9
2018-Oct-16 09:28S 27°10' E 153°20'0 0.1
2018-Oct-16 09:01S 27°10' E 153°20'0 0.1
2018-Oct-16 08:58S 27°10' E 153°20'0 0.1
2018-Oct-16 08:28S 27°10' E 153°20'0 0.1
2018-Oct-16 08:01S 27°10' E 153°20'0 0.5
2018-Oct-16 07:55S 27°10' E 153°20'0 0.1
2018-Oct-16 07:28S 27°10' E 153°20'0 0.0
2018-Oct-16 07:01S 27°10' E 153°20'0 0.0
2018-Oct-16 06:58S 27°10' E 153°20'0 0.1
2018-Oct-16 06:28S 27°10' E 153°20'0 0.0
2018-Oct-16 06:01S 27°10' E 153°20'0 0.1
2018-Oct-16 05:58S 27°10' E 153°20'0 0.0
2018-Oct-16 05:28S 27°10' E 153°20'0 0.0
2018-Oct-16 05:01S 27°10' E 153°20'0 0.1
2018-Oct-16 04:58S 27°10' E 153°20'0 0.0
2018-Oct-16 04:28S 27°10' E 153°20'0 0.0
2018-Oct-16 04:01S 27°10' E 153°20'0 0.0
2018-Oct-16 03:58S 27°10' E 153°20'0 0.0
2018-Oct-16 03:28S 27°10' E 153°20'0 0.0
2018-Oct-16 03:01S 27°10' E 153°20'0 0.0
2018-Oct-16 02:55S 27°10' E 153°20'0 0.0
2018-Oct-16 02:30S 27°10' E 153°20'0 0.0
2018-Oct-16 02:03S 27°10' E 153°20'0 0.1
2018-Oct-16 02:00S 27°10' E 153°20'0 0.0
2018-Oct-16 01:30S 27°10' E 153°20'0 0.0
2018-Oct-16 01:03S 27°10' E 153°20'0 0.0
2018-Oct-16 01:00S 27°10' E 153°20'0 0.0
2018-Oct-16 00:30S 27°10' E 153°20'0 0.0
2018-Oct-16 00:03S 27°10' E 153°20'0 1.2
2018-Oct-16 00:00S 27°10' E 153°20'2 3.0
2018-Oct-15 23:30S 27°09' E 153°21'714.7
2018-Oct-15 23:03S 27°03' E 153°17'115.7
2018-Oct-15 23:00S 27°03' E 153°17'714.8
2018-Oct-15 22:30S 26°56' E 153°13'614.3
2018-Oct-15 22:03S 26°51' E 153°09'112.6
2018-Oct-15 22:00S 26°50' E 153°09'1011.5
2018-Oct-15 21:10S 26°41' E 153°13'1 6.1
2018-Oct-15 21:00S 26°41' E 153°14'18 9.7
2018-Oct-15 19:10S 26°42' E 153°34'17 8.6
2018-Oct-15 17:14S 26°53' E 153°48'312.5
2018-Oct-15 16:57S 26°57' E 153°49'512.2
2018-Oct-15 16:30S 27°02' E 153°49'1312.5
2018-Oct-15 15:30S 27°15' E 153°51'612.4
2018-Oct-15 15:00S 27°21' E 153°51'812.7
2018-Oct-15 14:21S 27°29' E 153°51'412.8
2018-Oct-15 14:00S 27°33' E 153°51'612.5
2018-Oct-15 13:30S 27°40' E 153°51'612.8
2018-Oct-15 13:03S 27°45' E 153°51'113.4
2018-Oct-15 13:00S 27°46' E 153°51'713.1
2018-Oct-15 12:30S 27°53' E 153°51'612.9
2018-Oct-15 12:02S 27°59' E 153°51'013.5
2018-Oct-15 12:00S 27°59' E 153°51'713.0
2018-Oct-15 11:28S 28°06' E 153°51'26913.2
2018-Oct-14 15:02S 32°30' E 152°50'014.1
2018-Oct-14 15:00S 32°30' E 152°50'713.7
2018-Oct-14 14:31S 32°36' E 152°47'612.8
2018-Oct-14 14:01S 32°41' E 152°42'612.5
2018-Oct-14 13:31S 32°46' E 152°37'612.5
2018-Oct-14 13:04S 32°50' E 152°33'112.8
2018-Oct-14 13:01S 32°51' E 152°32'612.5
2018-Oct-14 12:31S 32°56' E 152°28'612.5
2018-Oct-14 12:04S 33°00' E 152°24'112.8
2018-Oct-14 12:01S 33°01' E 152°24'613.0
2018-Oct-14 11:31S 33°06' E 152°19'613.0
2018-Oct-14 11:03S 33°10' E 152°14'113.9
2018-Oct-14 11:00S 33°11' E 152°13'713.6
2018-Oct-14 10:30S 33°14' E 152°06'813.7
2018-Oct-14 09:56S 33°18' E 151°58'1914.2
2018-Oct-14 08:34S 33°33' E 151°43'113.8
2018-Oct-14 08:29S 33°33' E 151°42'613.9
2018-Oct-14 08:03S 33°38' E 151°37'114.4
2018-Oct-14 08:01S 33°38' E 151°36'714.4
2018-Oct-14 07:31S 33°44' E 151°31'613.3
2018-Oct-14 07:03S 33°48' E 151°26'113.8
2018-Oct-14 07:00S 33°49' E 151°26'611.9
2018-Oct-14 06:30S 33°52' E 151°20'4 8.0
2018-Oct-14 06:04S 33°50' E 151°17'111.1
2018-Oct-14 06:00S 33°50' E 151°16'3 0.4
2018-Oct-13 22:15S 33°52' E 151°13'0 0.0
2018-Oct-13 21:39S 33°52' E 151°13'0 0.0
2018-Oct-13 20:39S 33°52' E 151°13'0 0.0
2018-Oct-13 20:15S 33°52' E 151°13'0 0.0
2018-Oct-13 19:21S 33°52' E 151°13'0 0.1
2018-Oct-13 19:04S 33°52' E 151°13'0 1.0
2018-Oct-13 19:01S 33°52' E 151°13'3 5.3
2018-Oct-13 18:30S 33°51' E 151°16'510.2
2018-Oct-13 18:03S 33°50' E 151°21'110.6
2018-Oct-13 18:00S 33°49' E 151°22'714.2
2018-Oct-13 17:30S 33°45' E 151°28'613.5
2018-Oct-13 17:03S 33°41' E 151°33'112.0
2018-Oct-13 17:00S 33°40' E 151°34'611.9
2018-Oct-13 16:30S 33°36' E 151°39'511.9
2018-Oct-13 16:03S 33°32' E 151°43'112.2
2018-Oct-13 15:59S 33°32' E 151°44'1412.3
2018-Oct-13 14:49S 33°21' E 151°56'512.3
2018-Oct-13 14:24S 33°18' E 152°01'512.5
2018-Oct-13 14:00S 33°14' E 152°05'612.8
2018-Oct-13 13:30S 33°09' E 152°08'512.3
2018-Oct-13 13:03S 33°04' E 152°12'113.8
2018-Oct-13 13:00S 33°04' E 152°13'713.0
2018-Oct-13 12:30S 33°00' E 152°20'613.2
2018-Oct-13 12:03S 32°56' E 152°25'113.4
2018-Oct-13 12:00S 32°56' E 152°25'713.4
2018-Oct-13 11:30S 32°51' E 152°31'613.3
2018-Oct-13 11:03S 32°46' E 152°35'113.3
2018-Oct-13 11:00S 32°46' E 152°36'713.3
2018-Oct-13 10:30S 32°41' E 152°41'613.2
2018-Oct-13 10:03S 32°37' E 152°46'112.6
2018-Oct-13 10:00S 32°36' E 152°47'93818.6
2018-Oct-11 07:40S 22°26' E 166°09'320.5
2018-Oct-11 07:30S 22°24' E 166°12'817.1
2018-Oct-11 07:03S 22°19' E 166°18'112.4
2018-Oct-11 07:00S 22°18' E 166°19'612.9
2018-Oct-11 06:30S 22°15' E 166°25'2 4.0
2018-Oct-11 06:03S 22°16' E 166°26'0 0.2
2018-Oct-11 05:59S 22°16' E 166°26'0 0.0
2018-Oct-11 05:26S 22°16' E 166°26'0 0.0
2018-Oct-11 05:02S 22°16' E 166°26'0 0.0
2018-Oct-11 04:59S 22°16' E 166°26'0 0.0
2018-Oct-11 04:29S 22°16' E 166°26'0 0.0
2018-Oct-11 04:02S 22°16' E 166°26'0 0.0
2018-Oct-11 03:59S 22°16' E 166°26'0 0.0
2018-Oct-11 03:26S 22°16' E 166°26'0 0.0
2018-Oct-11 03:02S 22°16' E 166°26'0 0.0
2018-Oct-11 02:59S 22°16' E 166°26'0 0.0
2018-Oct-11 02:29S 22°16' E 166°26'0 0.0
2018-Oct-11 02:02S 22°16' E 166°26'0 0.0
2018-Oct-11 01:59S 22°16' E 166°26'0 0.0
2018-Oct-11 01:29S 22°16' E 166°26'0 0.0
2018-Oct-11 01:02S 22°16' E 166°26'0 0.0
2018-Oct-11 00:59S 22°16' E 166°26'0 0.0
2018-Oct-11 00:29S 22°16' E 166°26'0 0.0
2018-Oct-11 00:02S 22°16' E 166°26'0 0.0
2018-Oct-10 23:59S 22°16' E 166°26'0 0.0
2018-Oct-10 23:29S 22°16' E 166°26'0 0.0
2018-Oct-10 23:02S 22°16' E 166°26'0 0.0
2018-Oct-10 22:59S 22°16' E 166°26'0 0.0
2018-Oct-10 22:29S 22°16' E 166°26'0 0.0
2018-Oct-10 22:02S 22°16' E 166°26'0 0.0
2018-Oct-10 21:59S 22°16' E 166°26'0 0.0
2018-Oct-10 21:29S 22°16' E 166°26'0 0.0
2018-Oct-10 21:02S 22°16' E 166°26'0 0.0
2018-Oct-10 20:59S 22°16' E 166°26'0 0.0
2018-Oct-10 20:26S 22°16' E 166°26'0 0.0
2018-Oct-10 20:03S 22°16' E 166°26'0 0.2
2018-Oct-10 20:00S 22°16' E 166°26'3 5.8
2018-Oct-10 19:31S 22°15' E 166°23'512.0
2018-Oct-10 19:03S 22°19' E 166°26'114.9
2018-Oct-10 19:00S 22°20' E 166°27'815.1
2018-Oct-10 18:30S 22°22' E 166°34'817.0
2018-Oct-10 18:03S 22°23' E 166°43'117.7
2018-Oct-10 18:00S 22°24' E 166°44'  

Dump ship's entire track history